sensor_id;sensor_type;location;lat;lon;timestamp;temperature;humidity
44305;DHT22;30019;50.576;8.568;2023-01-19T00:01:36;-3.70;99.90
44305;DHT22;30019;50.576;8.568;2023-01-19T00:04:02;-3.80;99.90
44305;DHT22;30019;50.576;8.568;2023-01-19T00:06:28;-3.80;99.90
44305;DHT22;30019;50.576;8.568;2023-01-19T00:08:53;-3.70;99.90
44305;DHT22;30019;50.576;8.568;2023-01-19T00:11:19;-3.70;99.90
44305;DHT22;30019;50.576;8.568;2023-01-19T00:13:45;-3.60;99.90
44305;DHT22;30019;50.576;8.568;2023-01-19T00:16:15;-3.60;99.90
44305;DHT22;30019;50.576;8.568;2023-01-19T00:18:45;-3.70;99.90
44305;DHT22;30019;50.576;8.568;2023-01-19T00:21:12;-3.70;99.90
44305;DHT22;30019;50.576;8.568;2023-01-19T00:23:39;-3.80;99.90
44305;DHT22;30019;50.576;8.568;2023-01-19T00:26:05;-3.80;99.90
44305;DHT22;30019;50.576;8.568;2023-01-19T00:28:31;-3.90;99.90
44305;DHT22;30019;50.576;8.568;2023-01-19T00:30:56;-4.00;99.90
44305;DHT22;30019;50.576;8.568;2023-01-19T00:33:22;-4.00;99.90
44305;DHT22;30019;50.576;8.568;2023-01-19T00:35:51;-4.00;99.90
44305;DHT22;30019;50.576;8.568;2023-01-19T00:38:17;-4.10;99.90
44305;DHT22;30019;50.576;8.568;2023-01-19T00:40:43;-4.10;99.90
44305;DHT22;30019;50.576;8.568;2023-01-19T00:43:08;-4.10;99.90
44305;DHT22;30019;50.576;8.568;2023-01-19T00:45:34;-4.00;99.90
44305;DHT22;30019;50.576;8.568;2023-01-19T00:48:00;-4.00;99.90
44305;DHT22;30019;50.576;8.568;2023-01-19T00:50:26;-4.10;99.90
44305;DHT22;30019;50.576;8.568;2023-01-19T00:52:53;-4.10;99.90
44305;DHT22;30019;50.576;8.568;2023-01-19T00:55:20;-4.20;99.90
44305;DHT22;30019;50.576;8.568;2023-01-19T00:57:47;-4.20;99.90
44305;DHT22;30019;50.576;8.568;2023-01-19T01:02:42;-4.20;99.90
44305;DHT22;30019;50.576;8.568;2023-01-19T01:05:08;-4.10;99.90
44305;DHT22;30019;50.576;8.568;2023-01-19T01:07:35;-4.10;99.90
44305;DHT22;30019;50.576;8.568;2023-01-19T01:10:11;-4.00;99.90
44305;DHT22;30019;50.576;8.568;2023-01-19T01:12:37;-4.00;99.90
44305;DHT22;30019;50.576;8.568;2023-01-19T01:15:07;-3.90;99.90
44305;DHT22;30019;50.576;8.568;2023-01-19T01:17:33;-3.90;99.90
44305;DHT22;30019;50.576;8.568;2023-01-19T01:19:59;-3.90;99.90
44305;DHT22;30019;50.576;8.568;2023-01-19T01:22:25;-3.90;99.90
44305;DHT22;30019;50.576;8.568;2023-01-19T01:24:50;-3.90;99.90
44305;DHT22;30019;50.576;8.568;2023-01-19T01:27:16;-3.80;99.90
44305;DHT22;30019;50.576;8.568;2023-01-19T01:29:42;-3.80;99.90
44305;DHT22;30019;50.576;8.568;2023-01-19T01:32:11;-3.80;99.90
44305;DHT22;30019;50.576;8.568;2023-01-19T01:34:37;-3.80;99.90
44305;DHT22;30019;50.576;8.568;2023-01-19T01:37:03;-3.90;99.90
44305;DHT22;30019;50.576;8.568;2023-01-19T01:39:28;-4.00;99.90
44305;DHT22;30019;50.576;8.568;2023-01-19T01:41:54;-4.00;99.90
44305;DHT22;30019;50.576;8.568;2023-01-19T01:44:48;-4.00;99.90
44305;DHT22;30019;50.576;8.568;2023-01-19T01:47:33;-4.00;99.90
44305;DHT22;30019;50.576;8.568;2023-01-19T01:50:19;-4.00;99.90
44305;DHT22;30019;50.576;8.568;2023-01-19T01:52:53;-4.00;99.90
44305;DHT22;30019;50.576;8.568;2023-01-19T01:55:20;-4.00;99.90
44305;DHT22;30019;50.576;8.568;2023-01-19T01:57:50;-4.00;99.90
44305;DHT22;30019;50.576;8.568;2023-01-19T02:00:18;-3.90;99.90
44305;DHT22;30019;50.576;8.568;2023-01-19T02:02:44;-3.80;99.90
44305;DHT22;30019;50.576;8.568;2023-01-19T02:05:28;-3.80;99.90
44305;DHT22;30019;50.576;8.568;2023-01-19T02:08:09;-3.80;99.90
44305;DHT22;30019;50.576;8.568;2023-01-19T02:10:55;-3.80;99.90
44305;DHT22;30019;50.576;8.568;2023-01-19T02:13:42;-3.70;99.90
44305;DHT22;30019;50.576;8.568;2023-01-19T02:16:13;-3.70;99.90
44305;DHT22;30019;50.576;8.568;2023-01-19T02:18:39;-3.60;99.90
44305;DHT22;30019;50.576;8.568;2023-01-19T02:23:58;-3.50;99.90
44305;DHT22;30019;50.576;8.568;2023-01-19T02:26:29;-3.30;99.90
44305;DHT22;30019;50.576;8.568;2023-01-19T02:29:05;-3.30;99.90
44305;DHT22;30019;50.576;8.568;2023-01-19T02:31:33;-3.30;99.90
44305;DHT22;30019;50.576;8.568;2023-01-19T02:34:00;-3.30;99.90
44305;DHT22;30019;50.576;8.568;2023-01-19T02:36:37;-3.20;99.90
44305;DHT22;30019;50.576;8.568;2023-01-19T02:39:05;-3.20;99.90
44305;DHT22;30019;50.576;8.568;2023-01-19T02:41:37;-3.10;99.90
44305;DHT22;30019;50.576;8.568;2023-01-19T02:44:05;-3.00;99.90
44305;DHT22;30019;50.576;8.568;2023-01-19T02:46:32;-3.00;99.90
44305;DHT22;30019;50.576;8.568;2023-01-19T02:48:59;-3.10;99.90
44305;DHT22;30019;50.576;8.568;2023-01-19T02:51:26;-3.10;99.90
44305;DHT22;30019;50.576;8.568;2023-01-19T02:56:43;-3.20;99.90
44305;DHT22;30019;50.576;8.568;2023-01-19T03:07:14;-3.10;99.90
44305;DHT22;30019;50.576;8.568;2023-01-19T03:09:52;-3.10;99.90
44305;DHT22;30019;50.576;8.568;2023-01-19T03:15:22;-3.30;99.90
44305;DHT22;30019;50.576;8.568;2023-01-19T03:17:52;-3.40;99.90
44305;DHT22;30019;50.576;8.568;2023-01-19T03:20:22;-3.50;99.90
44305;DHT22;30019;50.576;8.568;2023-01-19T03:22:53;-3.60;99.90
44305;DHT22;30019;50.576;8.568;2023-01-19T03:25:21;-3.60;99.90
44305;DHT22;30019;50.576;8.568;2023-01-19T03:27:48;-3.70;99.90
44305;DHT22;30019;50.576;8.568;2023-01-19T03:30:21;-3.70;99.90
44305;DHT22;30019;50.576;8.568;2023-01-19T03:32:54;-3.70;99.90
44305;DHT22;30019;50.576;8.568;2023-01-19T03:35:23;-3.70;99.90
44305;DHT22;30019;50.576;8.568;2023-01-19T03:37:53;-3.60;99.90
44305;DHT22;30019;50.576;8.568;2023-01-19T03:40:20;-3.70;99.90
44305;DHT22;30019;50.576;8.568;2023-01-19T03:42:48;-3.80;99.90
44305;DHT22;30019;50.576;8.568;2023-01-19T03:45:14;-3.90;99.90
44305;DHT22;30019;50.576;8.568;2023-01-19T03:47:40;-3.90;99.90
44305;DHT22;30019;50.576;8.568;2023-01-19T03:50:11;-3.90;99.90
44305;DHT22;30019;50.576;8.568;2023-01-19T03:52:38;-4.00;99.90
44305;DHT22;30019;50.576;8.568;2023-01-19T03:55:04;-4.10;99.90
44305;DHT22;30019;50.576;8.568;2023-01-19T03:57:30;-4.20;99.90
44305;DHT22;30019;50.576;8.568;2023-01-19T03:59:56;-4.10;99.90
44305;DHT22;30019;50.576;8.568;2023-01-19T04:02:23;-4.10;99.90
44305;DHT22;30019;50.576;8.568;2023-01-19T04:04:48;-4.10;99.90
44305;DHT22;30019;50.576;8.568;2023-01-19T04:07:14;-4.10;99.90
44305;DHT22;30019;50.576;8.568;2023-01-19T04:09:40;-4.20;99.90
44305;DHT22;30019;50.576;8.568;2023-01-19T04:12:06;-4.20;99.90
44305;DHT22;30019;50.576;8.568;2023-01-19T04:14:31;-4.30;99.90
44305;DHT22;30019;50.576;8.568;2023-01-19T04:16:57;-4.30;99.90
44305;DHT22;30019;50.576;8.568;2023-01-19T04:19:23;-4.30;99.90
44305;DHT22;30019;50.576;8.568;2023-01-19T04:21:49;-4.30;99.90
44305;DHT22;30019;50.576;8.568;2023-01-19T04:24:15;-4.30;99.90
44305;DHT22;30019;50.576;8.568;2023-01-19T04:26:41;-4.30;99.90
44305;DHT22;30019;50.576;8.568;2023-01-19T04:29:06;-4.40;99.90
44305;DHT22;30019;50.576;8.568;2023-01-19T04:31:32;-4.40;99.90
44305;DHT22;30019;50.576;8.568;2023-01-19T04:34:00;-4.40;99.90
44305;DHT22;30019;50.576;8.568;2023-01-19T04:36:26;-4.40;99.90
44305;DHT22;30019;50.576;8.568;2023-01-19T04:38:53;-4.40;99.90
44305;DHT22;30019;50.576;8.568;2023-01-19T04:41:19;-4.30;99.90
44305;DHT22;30019;50.576;8.568;2023-01-19T04:43:44;-4.20;99.90
44305;DHT22;30019;50.576;8.568;2023-01-19T04:46:12;-4.30;99.90
44305;DHT22;30019;50.576;8.568;2023-01-19T04:48:38;-4.30;99.90
44305;DHT22;30019;50.576;8.568;2023-01-19T04:51:04;-4.30;99.90
44305;DHT22;30019;50.576;8.568;2023-01-19T04:53:29;-4.30;99.90
44305;DHT22;30019;50.576;8.568;2023-01-19T04:55:55;-4.20;99.90
44305;DHT22;30019;50.576;8.568;2023-01-19T04:58:20;-4.20;99.90
44305;DHT22;30019;50.576;8.568;2023-01-19T05:00:46;-4.30;99.90
44305;DHT22;30019;50.576;8.568;2023-01-19T05:03:12;-4.30;99.90
44305;DHT22;30019;50.576;8.568;2023-01-19T05:05:38;-4.30;99.90
44305;DHT22;30019;50.576;8.568;2023-01-19T05:08:03;-4.20;99.90
44305;DHT22;30019;50.576;8.568;2023-01-19T05:10:29;-4.10;99.90
44305;DHT22;30019;50.576;8.568;2023-01-19T05:12:55;-4.00;99.90
44305;DHT22;30019;50.576;8.568;2023-01-19T05:15:20;-3.90;99.90
44305;DHT22;30019;50.576;8.568;2023-01-19T05:17:46;-3.80;99.90
44305;DHT22;30019;50.576;8.568;2023-01-19T05:20:13;-3.70;99.90
44305;DHT22;30019;50.576;8.568;2023-01-19T05:22:38;-3.60;99.90
44305;DHT22;30019;50.576;8.568;2023-01-19T05:25:06;-3.40;99.90
44305;DHT22;30019;50.576;8.568;2023-01-19T05:27:33;-3.20;99.90
44305;DHT22;30019;50.576;8.568;2023-01-19T05:29:58;-3.10;99.90
44305;DHT22;30019;50.576;8.568;2023-01-19T05:32:24;-3.00;99.90
44305;DHT22;30019;50.576;8.568;2023-01-19T05:34:50;-2.90;99.90
44305;DHT22;30019;50.576;8.568;2023-01-19T05:37:15;-2.90;99.90
44305;DHT22;30019;50.576;8.568;2023-01-19T05:39:41;-2.80;99.90
44305;DHT22;30019;50.576;8.568;2023-01-19T05:42:06;-2.70;99.90
44305;DHT22;30019;50.576;8.568;2023-01-19T05:44:32;-2.80;99.90
44305;DHT22;30019;50.576;8.568;2023-01-19T05:46:58;-2.80;99.90
44305;DHT22;30019;50.576;8.568;2023-01-19T05:49:23;-2.80;99.90
44305;DHT22;30019;50.576;8.568;2023-01-19T05:51:49;-2.70;99.90
44305;DHT22;30019;50.576;8.568;2023-01-19T05:54:14;-2.70;99.90
44305;DHT22;30019;50.576;8.568;2023-01-19T05:56:41;-2.70;99.90
44305;DHT22;30019;50.576;8.568;2023-01-19T05:59:07;-2.80;99.90
44305;DHT22;30019;50.576;8.568;2023-01-19T06:01:32;-2.80;99.90
44305;DHT22;30019;50.576;8.568;2023-01-19T06:03:59;-2.70;99.90
44305;DHT22;30019;50.576;8.568;2023-01-19T06:06:25;-2.70;99.90
44305;DHT22;30019;50.576;8.568;2023-01-19T06:08:51;-2.70;99.90
44305;DHT22;30019;50.576;8.568;2023-01-19T06:11:16;-2.60;99.90
44305;DHT22;30019;50.576;8.568;2023-01-19T06:13:42;-2.60;99.90
44305;DHT22;30019;50.576;8.568;2023-01-19T06:16:08;-2.50;99.90
44305;DHT22;30019;50.576;8.568;2023-01-19T06:18:35;-2.50;99.90
44305;DHT22;30019;50.576;8.568;2023-01-19T06:21:07;-2.50;99.90
44305;DHT22;30019;50.576;8.568;2023-01-19T06:23:34;-2.50;99.90
44305;DHT22;30019;50.576;8.568;2023-01-19T06:26:00;-2.50;99.90
44305;DHT22;30019;50.576;8.568;2023-01-19T06:28:26;-2.40;99.90
44305;DHT22;30019;50.576;8.568;2023-01-19T06:30:53;-2.40;99.90
44305;DHT22;30019;50.576;8.568;2023-01-19T06:33:19;-2.40;99.90
44305;DHT22;30019;50.576;8.568;2023-01-19T06:35:46;-2.40;99.90
44305;DHT22;30019;50.576;8.568;2023-01-19T06:38:13;-2.40;99.90
44305;DHT22;30019;50.576;8.568;2023-01-19T06:40:41;-2.50;99.90
44305;DHT22;30019;50.576;8.568;2023-01-19T06:43:07;-2.70;99.90
44305;DHT22;30019;50.576;8.568;2023-01-19T06:45:33;-2.80;99.90
44305;DHT22;30019;50.576;8.568;2023-01-19T06:47:59;-2.80;99.90
44305;DHT22;30019;50.576;8.568;2023-01-19T06:50:25;-2.80;99.90
44305;DHT22;30019;50.576;8.568;2023-01-19T06:52:50;-2.70;99.90
44305;DHT22;30019;50.576;8.568;2023-01-19T06:55:16;-2.60;99.90
44305;DHT22;30019;50.576;8.568;2023-01-19T06:57:42;-2.60;99.90
44305;DHT22;30019;50.576;8.568;2023-01-19T07:00:09;-2.50;99.90
44305;DHT22;30019;50.576;8.568;2023-01-19T07:02:42;-2.40;99.90
44305;DHT22;30019;50.576;8.568;2023-01-19T07:05:09;-2.30;99.90
44305;DHT22;30019;50.576;8.568;2023-01-19T07:07:35;-2.20;99.90
44305;DHT22;30019;50.576;8.568;2023-01-19T07:10:07;-2.10;99.90
44305;DHT22;30019;50.576;8.568;2023-01-19T07:12:33;-2.10;99.90
44305;DHT22;30019;50.576;8.568;2023-01-19T07:14:59;-2.00;99.90
44305;DHT22;30019;50.576;8.568;2023-01-19T07:17:25;-2.00;99.90
44305;DHT22;30019;50.576;8.568;2023-01-19T07:19:50;-1.90;99.90
44305;DHT22;30019;50.576;8.568;2023-01-19T07:22:16;-1.90;99.90
44305;DHT22;30019;50.576;8.568;2023-01-19T07:24:42;-1.90;99.90
44305;DHT22;30019;50.576;8.568;2023-01-19T07:27:08;-1.90;99.90
44305;DHT22;30019;50.576;8.568;2023-01-19T07:29:36;-1.80;99.90
44305;DHT22;30019;50.576;8.568;2023-01-19T07:32:01;-1.70;99.90
44305;DHT22;30019;50.576;8.568;2023-01-19T07:34:27;-1.60;99.90
44305;DHT22;30019;50.576;8.568;2023-01-19T07:36:55;-1.60;99.90
44305;DHT22;30019;50.576;8.568;2023-01-19T07:39:20;-1.50;99.90
44305;DHT22;30019;50.576;8.568;2023-01-19T07:41:47;-1.50;99.90
44305;DHT22;30019;50.576;8.568;2023-01-19T07:44:13;-1.50;99.90
44305;DHT22;30019;50.576;8.568;2023-01-19T07:46:39;-1.50;99.90
44305;DHT22;30019;50.576;8.568;2023-01-19T07:49:05;-1.50;99.90
44305;DHT22;30019;50.576;8.568;2023-01-19T07:51:31;-1.50;99.90
44305;DHT22;30019;50.576;8.568;2023-01-19T07:53:56;-1.50;99.90
44305;DHT22;30019;50.576;8.568;2023-01-19T07:56:23;-1.50;99.90
44305;DHT22;30019;50.576;8.568;2023-01-19T07:58:49;-1.50;99.90
44305;DHT22;30019;50.576;8.568;2023-01-19T08:01:16;-1.50;99.90
44305;DHT22;30019;50.576;8.568;2023-01-19T08:03:43;-1.40;99.90
44305;DHT22;30019;50.576;8.568;2023-01-19T08:06:22;-1.40;99.90
44305;DHT22;30019;50.576;8.568;2023-01-19T08:08:48;-1.30;99.90
44305;DHT22;30019;50.576;8.568;2023-01-19T08:11:14;-1.20;99.90
44305;DHT22;30019;50.576;8.568;2023-01-19T08:13:40;-1.10;99.90
44305;DHT22;30019;50.576;8.568;2023-01-19T08:16:06;-1.00;99.90
44305;DHT22;30019;50.576;8.568;2023-01-19T08:18:32;-0.80;99.90
44305;DHT22;30019;50.576;8.568;2023-01-19T08:20:58;-0.60;99.90
44305;DHT22;30019;50.576;8.568;2023-01-19T08:23:24;-0.50;99.90
44305;DHT22;30019;50.576;8.568;2023-01-19T08:25:50;-0.30;99.90
44305;DHT22;30019;50.576;8.568;2023-01-19T08:28:16;-0.20;99.90
44305;DHT22;30019;50.576;8.568;2023-01-19T08:30:43;-0.10;99.90
44305;DHT22;30019;50.576;8.568;2023-01-19T08:33:10;0.00;99.90
44305;DHT22;30019;50.576;8.568;2023-01-19T08:35:38;0.00;99.90
44305;DHT22;30019;50.576;8.568;2023-01-19T08:38:05;0.10;99.90
44305;DHT22;30019;50.576;8.568;2023-01-19T08:40:32;0.20;99.90
44305;DHT22;30019;50.576;8.568;2023-01-19T08:43:00;0.20;99.90
44305;DHT22;30019;50.576;8.568;2023-01-19T08:45:28;0.20;99.90
44305;DHT22;30019;50.576;8.568;2023-01-19T08:47:55;0.20;99.90
44305;DHT22;30019;50.576;8.568;2023-01-19T08:50:23;0.20;99.90
44305;DHT22;30019;50.576;8.568;2023-01-19T08:52:49;0.20;99.90
44305;DHT22;30019;50.576;8.568;2023-01-19T08:55:15;0.20;99.90
44305;DHT22;30019;50.576;8.568;2023-01-19T08:57:41;0.20;99.90
44305;DHT22;30019;50.576;8.568;2023-01-19T09:00:08;0.20;99.90
44305;DHT22;30019;50.576;8.568;2023-01-19T09:02:35;0.20;99.90
44305;DHT22;30019;50.576;8.568;2023-01-19T09:05:01;0.30;99.90
44305;DHT22;30019;50.576;8.568;2023-01-19T09:07:29;0.30;99.90
44305;DHT22;30019;50.576;8.568;2023-01-19T09:09:55;0.30;99.90
44305;DHT22;30019;50.576;8.568;2023-01-19T09:12:20;0.30;99.90
44305;DHT22;30019;50.576;8.568;2023-01-19T09:14:46;0.40;99.90
44305;DHT22;30019;50.576;8.568;2023-01-19T09:17:11;0.40;99.90
44305;DHT22;30019;50.576;8.568;2023-01-19T09:19:39;0.50;99.90
44305;DHT22;30019;50.576;8.568;2023-01-19T09:22:05;0.50;99.90
44305;DHT22;30019;50.576;8.568;2023-01-19T09:24:31;0.50;99.90
44305;DHT22;30019;50.576;8.568;2023-01-19T09:26:59;0.50;99.90
44305;DHT22;30019;50.576;8.568;2023-01-19T09:29:25;0.50;99.90
44305;DHT22;30019;50.576;8.568;2023-01-19T09:31:50;0.50;99.90
44305;DHT22;30019;50.576;8.568;2023-01-19T09:34:16;0.50;99.90
44305;DHT22;30019;50.576;8.568;2023-01-19T09:36:42;0.50;99.90
44305;DHT22;30019;50.576;8.568;2023-01-19T09:39:07;0.50;99.90
44305;DHT22;30019;50.576;8.568;2023-01-19T09:41:35;0.50;99.90
44305;DHT22;30019;50.576;8.568;2023-01-19T09:44:01;0.50;99.90
44305;DHT22;30019;50.576;8.568;2023-01-19T09:46:37;0.50;99.90
44305;DHT22;30019;50.576;8.568;2023-01-19T09:49:12;0.50;99.90
44305;DHT22;30019;50.576;8.568;2023-01-19T09:51:41;0.50;99.90
44305;DHT22;30019;50.576;8.568;2023-01-19T09:54:22;0.60;99.90
44305;DHT22;30019;50.576;8.568;2023-01-19T09:56:48;0.60;99.90
44305;DHT22;30019;50.576;8.568;2023-01-19T09:59:24;0.60;99.90
44305;DHT22;30019;50.576;8.568;2023-01-19T10:04:33;0.60;99.90
44305;DHT22;30019;50.576;8.568;2023-01-19T10:07:11;0.70;99.90
44305;DHT22;30019;50.576;8.568;2023-01-19T10:12:43;0.90;99.90
44305;DHT22;30019;50.576;8.568;2023-01-19T10:15:23;1.00;99.90
44305;DHT22;30019;50.576;8.568;2023-01-19T10:18:24;1.10;99.90
44305;DHT22;30019;50.576;8.568;2023-01-19T10:29:04;1.20;99.90
44305;DHT22;30019;50.576;8.568;2023-01-19T10:31:31;1.10;99.90
44305;DHT22;30019;50.576;8.568;2023-01-19T10:33:58;1.00;99.90
44305;DHT22;30019;50.576;8.568;2023-01-19T10:36:32;1.00;99.90
44305;DHT22;30019;50.576;8.568;2023-01-19T10:38:58;1.00;99.90
44305;DHT22;30019;50.576;8.568;2023-01-19T10:41:35;0.90;99.90
44305;DHT22;30019;50.576;8.568;2023-01-19T10:44:04;0.90;99.90
44305;DHT22;30019;50.576;8.568;2023-01-19T10:48:58;0.90;99.90
44305;DHT22;30019;50.576;8.568;2023-01-19T10:51:24;1.00;99.90
44305;DHT22;30019;50.576;8.568;2023-01-19T10:53:56;1.00;99.90
44305;DHT22;30019;50.576;8.568;2023-01-19T10:56:26;1.10;99.90
44305;DHT22;30019;50.576;8.568;2023-01-19T10:58:52;1.10;99.90
44305;DHT22;30019;50.576;8.568;2023-01-19T11:01:20;1.10;99.90
44305;DHT22;30019;50.576;8.568;2023-01-19T11:03:46;1.20;99.90
44305;DHT22;30019;50.576;8.568;2023-01-19T11:08:38;1.30;99.90
44305;DHT22;30019;50.576;8.568;2023-01-19T11:11:04;1.40;99.90
44305;DHT22;30019;50.576;8.568;2023-01-19T11:13:33;1.50;99.90
44305;DHT22;30019;50.576;8.568;2023-01-19T11:16:26;1.60;99.90
44305;DHT22;30019;50.576;8.568;2023-01-19T11:18:54;1.70;99.90
44305;DHT22;30019;50.576;8.568;2023-01-19T11:21:23;1.80;99.90
44305;DHT22;30019;50.576;8.568;2023-01-19T11:23:51;1.70;99.90
44305;DHT22;30019;50.576;8.568;2023-01-19T11:26:41;1.70;99.90
44305;DHT22;30019;50.576;8.568;2023-01-19T11:29:19;1.70;99.90
44305;DHT22;30019;50.576;8.568;2023-01-19T11:31:46;1.60;99.90
44305;DHT22;30019;50.576;8.568;2023-01-19T11:40:08;1.50;99.90
44305;DHT22;30019;50.576;8.568;2023-01-19T11:42:35;1.40;99.90
44305;DHT22;30019;50.576;8.568;2023-01-19T11:45:13;1.30;99.90
44305;DHT22;30019;50.576;8.568;2023-01-19T11:47:43;1.30;99.90
44305;DHT22;30019;50.576;8.568;2023-01-19T11:50:30;1.30;99.90
44305;DHT22;30019;50.576;8.568;2023-01-19T11:53:21;1.30;99.90
44305;DHT22;30019;50.576;8.568;2023-01-19T11:56:03;1.30;99.90
44305;DHT22;30019;50.576;8.568;2023-01-19T11:58:32;1.30;99.90
44305;DHT22;30019;50.576;8.568;2023-01-19T12:04:00;1.30;99.90
44305;DHT22;30019;50.576;8.568;2023-01-19T12:06:32;1.40;99.90
44305;DHT22;30019;50.576;8.568;2023-01-19T12:09:04;1.30;99.90
44305;DHT22;30019;50.576;8.568;2023-01-19T12:11:34;1.40;99.90
44305;DHT22;30019;50.576;8.568;2023-01-19T12:14:01;1.30;99.90
44305;DHT22;30019;50.576;8.568;2023-01-19T12:16:31;1.40;99.90
44305;DHT22;30019;50.576;8.568;2023-01-19T12:19:02;1.40;99.90
44305;DHT22;30019;50.576;8.568;2023-01-19T12:21:29;1.40;99.90
44305;DHT22;30019;50.576;8.568;2023-01-19T12:24:25;1.40;99.90
44305;DHT22;30019;50.576;8.568;2023-01-19T12:26:56;1.50;99.90
44305;DHT22;30019;50.576;8.568;2023-01-19T12:29:26;1.40;99.90
44305;DHT22;30019;50.576;8.568;2023-01-19T12:34:50;1.50;99.90
44305;DHT22;30019;50.576;8.568;2023-01-19T12:37:41;1.50;99.90
44305;DHT22;30019;50.576;8.568;2023-01-19T12:40:21;1.50;99.90
44305;DHT22;30019;50.576;8.568;2023-01-19T12:43:12;1.50;99.90
44305;DHT22;30019;50.576;8.568;2023-01-19T12:45:39;1.50;99.90
44305;DHT22;30019;50.576;8.568;2023-01-19T12:48:09;1.50;99.90
44305;DHT22;30019;50.576;8.568;2023-01-19T12:50:47;1.50;99.90
44305;DHT22;30019;50.576;8.568;2023-01-19T12:53:18;1.40;99.90
44305;DHT22;30019;50.576;8.568;2023-01-19T12:55:45;1.40;99.90
44305;DHT22;30019;50.576;8.568;2023-01-19T12:58:23;1.40;99.90
44305;DHT22;30019;50.576;8.568;2023-01-19T13:01:10;1.40;99.90
44305;DHT22;30019;50.576;8.568;2023-01-19T13:03:44;1.30;99.90
44305;DHT22;30019;50.576;8.568;2023-01-19T13:06:10;1.30;99.90
44305;DHT22;30019;50.576;8.568;2023-01-19T13:08:55;1.40;99.90
44305;DHT22;30019;50.576;8.568;2023-01-19T13:11:21;1.40;99.90
44305;DHT22;30019;50.576;8.568;2023-01-19T13:18:56;1.50;99.90
44305;DHT22;30019;50.576;8.568;2023-01-19T13:21:40;1.50;99.90
44305;DHT22;30019;50.576;8.568;2023-01-19T13:24:15;1.50;99.90
44305;DHT22;30019;50.576;8.568;2023-01-19T13:26:52;1.50;99.90
44305;DHT22;30019;50.576;8.568;2023-01-19T13:29:29;1.50;99.90
44305;DHT22;30019;50.576;8.568;2023-01-19T13:31:57;1.50;99.90
44305;DHT22;30019;50.576;8.568;2023-01-19T13:34:29;1.60;99.90
44305;DHT22;30019;50.576;8.568;2023-01-19T13:36:56;1.60;99.90
44305;DHT22;30019;50.576;8.568;2023-01-19T13:39:44;1.70;99.90
44305;DHT22;30019;50.576;8.568;2023-01-19T13:42:22;1.70;99.90
44305;DHT22;30019;50.576;8.568;2023-01-19T13:44:52;1.80;99.90
44305;DHT22;30019;50.576;8.568;2023-01-19T13:47:21;1.80;99.90
44305;DHT22;30019;50.576;8.568;2023-01-19T13:49:50;1.80;99.90
44305;DHT22;30019;50.576;8.568;2023-01-19T13:52:24;1.80;99.90
44305;DHT22;30019;50.576;8.568;2023-01-19T14:00:21;1.90;99.90
44305;DHT22;30019;50.576;8.568;2023-01-19T14:03:07;2.00;99.90
44305;DHT22;30019;50.576;8.568;2023-01-19T14:05:39;2.00;99.90
44305;DHT22;30019;50.576;8.568;2023-01-19T14:10:31;2.10;99.90
44305;DHT22;30019;50.576;8.568;2023-01-19T14:13:17;2.20;99.90
44305;DHT22;30019;50.576;8.568;2023-01-19T14:15:44;2.20;99.90
44305;DHT22;30019;50.576;8.568;2023-01-19T14:20:39;2.30;99.90
44305;DHT22;30019;50.576;8.568;2023-01-19T14:23:35;2.20;99.90
44305;DHT22;30019;50.576;8.568;2023-01-19T14:25:51;2.20;99.90
44305;DHT22;30019;50.576;8.568;2023-01-19T14:28:40;2.20;99.90
44305;DHT22;30019;50.576;8.568;2023-01-19T14:31:22;2.20;99.90
44305;DHT22;30019;50.576;8.568;2023-01-19T14:33:50;2.00;99.90
44305;DHT22;30019;50.576;8.568;2023-01-19T14:38:51;2.00;99.90
44305;DHT22;30019;50.576;8.568;2023-01-19T14:41:45;1.80;99.90
44305;DHT22;30019;50.576;8.568;2023-01-19T14:44:29;1.70;99.90
44305;DHT22;30019;50.576;8.568;2023-01-19T14:46:56;1.70;99.90
44305;DHT22;30019;50.576;8.568;2023-01-19T14:49:35;1.60;99.90
44305;DHT22;30019;50.576;8.568;2023-01-19T14:52:05;1.60;99.90
44305;DHT22;30019;50.576;8.568;2023-01-19T14:54:37;1.60;99.90
44305;DHT22;30019;50.576;8.568;2023-01-19T14:57:04;1.50;99.90
44305;DHT22;30019;50.576;8.568;2023-01-19T14:59:31;1.60;99.90
44305;DHT22;30019;50.576;8.568;2023-01-19T15:01:56;1.50;99.90
44305;DHT22;30019;50.576;8.568;2023-01-19T15:04:24;1.60;99.90
44305;DHT22;30019;50.576;8.568;2023-01-19T15:06:50;1.60;99.90
44305;DHT22;30019;50.576;8.568;2023-01-19T15:09:15;1.60;99.90
44305;DHT22;30019;50.576;8.568;2023-01-19T15:11:42;1.50;99.90
44305;DHT22;30019;50.576;8.568;2023-01-19T15:14:12;1.60;99.90
44305;DHT22;30019;50.576;8.568;2023-01-19T15:16:39;1.60;99.90
44305;DHT22;30019;50.576;8.568;2023-01-19T15:19:04;1.60;99.90
44305;DHT22;30019;50.576;8.568;2023-01-19T15:21:30;1.50;99.90
44305;DHT22;30019;50.576;8.568;2023-01-19T15:23:56;1.50;99.90
44305;DHT22;30019;50.576;8.568;2023-01-19T15:26:24;1.50;99.90
44305;DHT22;30019;50.576;8.568;2023-01-19T15:28:51;1.50;99.90
44305;DHT22;30019;50.576;8.568;2023-01-19T15:31:20;1.50;99.90
44305;DHT22;30019;50.576;8.568;2023-01-19T15:33:46;1.50;99.90
44305;DHT22;30019;50.576;8.568;2023-01-19T15:36:19;1.40;99.90
44305;DHT22;30019;50.576;8.568;2023-01-19T15:38:45;1.50;99.90
44305;DHT22;30019;50.576;8.568;2023-01-19T15:41:30;1.40;99.90
44305;DHT22;30019;50.576;8.568;2023-01-19T15:43:55;1.40;99.90
44305;DHT22;30019;50.576;8.568;2023-01-19T15:46:22;1.30;99.90
44305;DHT22;30019;50.576;8.568;2023-01-19T15:48:49;1.30;99.90
44305;DHT22;30019;50.576;8.568;2023-01-19T15:51:21;1.30;99.90
44305;DHT22;30019;50.576;8.568;2023-01-19T15:53:47;1.30;99.90
44305;DHT22;30019;50.576;8.568;2023-01-19T15:56:18;1.30;99.90
44305;DHT22;30019;50.576;8.568;2023-01-19T15:58:45;1.20;99.90
44305;DHT22;30019;50.576;8.568;2023-01-19T16:01:15;1.20;99.90
44305;DHT22;30019;50.576;8.568;2023-01-19T16:03:41;1.20;99.90
44305;DHT22;30019;50.576;8.568;2023-01-19T16:06:07;1.20;99.90
44305;DHT22;30019;50.576;8.568;2023-01-19T16:08:34;1.10;99.90
44305;DHT22;30019;50.576;8.568;2023-01-19T16:11:04;1.10;99.90
44305;DHT22;30019;50.576;8.568;2023-01-19T16:13:30;1.10;99.90
44305;DHT22;30019;50.576;8.568;2023-01-19T16:16:03;1.10;99.90
44305;DHT22;30019;50.576;8.568;2023-01-19T16:18:29;1.00;99.90
44305;DHT22;30019;50.576;8.568;2023-01-19T16:20:54;1.00;99.90
44305;DHT22;30019;50.576;8.568;2023-01-19T16:23:20;1.00;99.90
44305;DHT22;30019;50.576;8.568;2023-01-19T16:26:01;1.00;99.90
44305;DHT22;30019;50.576;8.568;2023-01-19T16:28:33;1.10;99.90
44305;DHT22;30019;50.576;8.568;2023-01-19T16:30:58;1.10;99.90
44305;DHT22;30019;50.576;8.568;2023-01-19T16:33:24;1.10;99.90
44305;DHT22;30019;50.576;8.568;2023-01-19T16:35:50;1.10;99.90
44305;DHT22;30019;50.576;8.568;2023-01-19T16:38:16;1.00;99.90
44305;DHT22;30019;50.576;8.568;2023-01-19T16:40:45;1.00;99.90
44305;DHT22;30019;50.576;8.568;2023-01-19T16:43:11;1.00;99.90
44305;DHT22;30019;50.576;8.568;2023-01-19T16:46:00;1.00;99.90
44305;DHT22;30019;50.576;8.568;2023-01-19T16:48:27;1.00;99.90
44305;DHT22;30019;50.576;8.568;2023-01-19T16:50:58;1.00;99.90
44305;DHT22;30019;50.576;8.568;2023-01-19T16:53:24;1.00;99.90
44305;DHT22;30019;50.576;8.568;2023-01-19T16:55:49;0.90;99.90
44305;DHT22;30019;50.576;8.568;2023-01-19T16:58:17;0.90;99.90